Time;durP1;ratioP1;P1;durP2;ratioP2;P2;SDS_P1;SDS_P2;PMS_P1;PMS_P2;Temp;Humidity;BMP_temperature;BMP_pressure;BME280_temperature;BME280_humidity;BME280_pressure;Samples;Min_cycle;Max_cycle;Signal;HPM_P1;HPM_P2
2022/09/26 00:01:22;;;;;;;4.35;1.20;;;11.30;1.00;;;;;;5016125;28;20030;-81
2022/09/26 00:03:51;;;;;;;6.53;1.17;;;11.30;1.00;;;;;;5016037;28;20057;-81
2022/09/26 00:06:17;;;;;;;3.28;1.20;;;11.40;1.00;;;;;;5016133;28;20368;-81
2022/09/26 00:08:45;;;;;;;4.40;1.20;;;11.30;1.00;;;;;;5015988;28;20042;-80
2022/09/26 00:11:13;;;;;;;2.88;1.08;;;11.30;1.00;;;;;;5015928;28;20448;-81
2022/09/26 00:13:40;;;;;;;2.85;1.30;;;11.30;1.00;;;;;;5015935;28;20030;-81
2022/09/26 00:16:07;;;;;;;3.45;1.10;;;11.30;1.00;;;;;;4996201;28;20473;-81
2022/09/26 00:18:33;;;;;;;4.90;1.17;;;11.30;1.00;;;;;;4996336;28;20524;-80
2022/09/26 00:21:17;;;;;;;2.95;0.93;;;11.30;1.00;;;;;;5014740;28;20110;-81
2022/09/26 00:23:43;;;;;;;3.72;1.13;;;11.30;1.00;;;;;;5015592;28;20507;-80
2022/09/26 00:26:10;;;;;;;1.58;1.05;;;11.20;1.00;;;;;;5015737;28;20022;-81
2022/09/26 00:28:35;;;;;;;1.50;0.82;;;11.30;1.00;;;;;;5015659;28;20076;-81
2022/09/26 00:31:08;;;;;;;1.00;0.90;;;11.20;1.00;;;;;;5015778;28;20050;-81
2022/09/26 00:33:33;;;;;;;1.95;0.90;;;11.30;99.90;;;;;;5053438;22;20102;-75
2022/09/26 00:35:59;;;;;;;4.15;1.02;;;11.30;99.90;;;;;;5054124;28;20029;-75
2022/09/26 00:38:25;;;;;;;4.57;1.27;;;11.40;99.90;;;;;;5053943;28;20032;-75
2022/09/26 00:40:51;;;;;;;5.80;1.00;;;11.30;99.90;;;;;;5053404;28;20103;-75
2022/09/26 00:43:28;;;;;;;3.67;1.30;;;11.30;99.90;;;;;;5034181;28;20056;-75
2022/09/26 00:46:16;;;;;;;2.20;0.82;;;11.40;99.90;;;;;;5034080;28;20049;-74
2022/09/26 00:48:45;;;;;;;1.25;0.85;;;11.40;99.90;;;;;;5035556;28;20026;-75
2022/09/26 00:51:11;;;;;;;2.67;0.98;;;11.30;99.90;;;;;;5053782;28;20472;-75
2022/09/26 00:53:47;;;;;;;1.92;0.98;;;11.40;99.90;;;;;;5053827;28;20029;-75
2022/09/26 00:56:21;;;;;;;3.45;0.90;;;11.40;99.90;;;;;;5052534;28;20024;-75
2022/09/26 00:59:10;;;;;;;1.50;0.80;;;11.40;99.90;;;;;;5053793;28;20413;-75
2022/09/26 01:01:36;;;;;;;2.83;0.95;;;11.30;1.00;;;;;;5033748;28;20025;-75
2022/09/26 01:04:04;;;;;;;2.38;0.98;;;11.40;99.90;;;;;;5034850;28;20060;-75
2022/09/26 01:06:31;;;;;;;1.48;0.80;;;11.40;99.90;;;;;;5047079;28;20025;-75
2022/09/26 01:09:00;;;;;;;4.82;1.15;;;11.50;99.90;;;;;;5053682;28;20024;-75
2022/09/26 01:11:27;;;;;;;4.40;1.17;;;11.50;99.90;;;;;;5053138;28;20079;-75
2022/09/26 01:13:53;;;;;;;4.68;1.00;;;11.50;99.90;;;;;;5053445;28;20021;-75
2022/09/26 01:16:26;;;;;;;5.35;1.40;;;11.50;99.90;;;;;;5033561;28;20026;-75
2022/09/26 01:18:52;;;;;;;4.88;1.30;;;11.40;99.90;;;;;;5033523;28;20100;-75
2022/09/26 01:21:37;;;;;;;3.50;0.95;;;11.50;99.90;;;;;;5051158;28;20029;-75
2022/09/26 01:24:25;;;;;;;6.40;1.70;;;11.40;99.90;;;;;;5053311;28;20017;-75
2022/09/26 01:27:33;;;;;;;4.85;1.33;;;11.40;99.90;;;;;;5033884;28;20030;-75
2022/09/26 01:30:06;;;;;;;3.50;1.58;;;11.40;1.00;;;;;;5033807;28;20079;-75
2022/09/26 01:32:50;;;;;;;3.40;2.15;;;11.40;1.00;;;;;;5044084;28;20095;-75
2022/09/26 01:35:37;;;;;;;3.03;1.30;;;11.40;1.00;;;;;;5033768;28;20029;-75
2022/09/26 01:38:17;;;;;;;2.90;1.25;;;11.40;1.00;;;;;;5033959;28;20435;-75
2022/09/26 01:41:05;;;;;;;11.13;1.70;;;11.40;1.00;;;;;;5033878;28;20029;-75
2022/09/26 01:44:04;;;;;;;4.50;1.60;;;11.40;1.00;;;;;;5033862;28;20025;-75
2022/09/26 01:46:43;;;;;;;5.63;1.83;;;11.40;1.00;;;;;;5033775;28;20036;-75
2022/09/26 01:49:17;;;;;;;3.77;2.10;;;11.40;1.00;;;;;;5040797;28;20033;-75
2022/09/26 01:52:02;;;;;;;5.45;2.10;;;11.40;1.00;;;;;;5031030;28;20060;-75
2022/09/26 01:54:38;;;;;;;5.22;2.13;;;11.40;1.00;;;;;;5033284;28;20045;-75
2022/09/26 01:57:09;;;;;;;3.03;1.65;;;11.40;1.00;;;;;;5031959;28;20072;-75
2022/09/26 02:00:04;;;;;;;4.65;1.70;;;11.40;1.00;;;;;;5033196;28;20226;-75
2022/09/26 02:02:35;;;;;;;1.70;1.58;;;11.30;1.00;;;;;;5047003;28;20065;-75
2022/09/26 02:05:10;;;;;;;3.95;1.80;;;11.30;1.00;;;;;;5020504;28;20113;-75
2022/09/26 02:07:41;;;;;;;2.70;1.77;;;11.30;1.00;;;;;;5033064;28;20036;-75
2022/09/26 02:10:14;;;;;;;6.00;2.08;;;11.30;1.00;;;;;;5033106;28;20032;-75
2022/09/26 02:12:44;;;;;;;3.78;2.10;;;11.30;1.00;;;;;;5033166;28;20029;-75
2022/09/26 02:15:14;;;;;;;4.30;1.70;;;11.30;1.00;;;;;;5032990;28;20472;-75
2022/09/26 02:17:44;;;;;;;5.65;2.20;;;11.30;1.00;;;;;;5032647;28;20470;-75
2022/09/26 02:20:25;;;;;;;4.05;1.92;;;11.30;1.00;;;;;;5032921;28;20071;-75
2022/09/26 02:22:51;;;;;;;6.22;2.22;;;11.30;1.00;;;;;;5032723;28;20025;-75
2022/09/26 02:25:17;;;;;;;6.63;2.05;;;11.30;5.20;;;;;;5032818;28;20025;-75
2022/09/26 02:27:43;;;;;;;4.55;2.03;;;11.30;1.00;;;;;;5033220;28;20124;-75
2022/09/26 02:30:09;;;;;;;6.95;2.58;;;11.40;1.00;;;;;;5032986;28;20025;-75
2022/09/26 02:32:36;;;;;;;3.53;1.95;;;11.30;1.00;;;;;;5031673;28;20060;-76
2022/09/26 02:35:52;;;;;;;4.90;2.30;;;11.30;1.00;;;;;;5036902;28;20495;-75
2022/09/26 02:37:48;;;;;;;6.50;2.00;;;11.40;1.00;;;;;;5020441;28;20084;-75
2022/09/26 02:40:14;;;;;;;4.88;1.88;;;11.30;1.00;;;;;;5032304;28;20032;-75
2022/09/26 02:42:49;;;;;;;6.72;2.42;;;11.30;1.00;;;;;;5035270;28;20029;-75
2022/09/26 02:45:42;;;;;;;4.53;2.97;;;11.30;1.00;;;;;;5034751;28;20040;-75
2022/09/26 02:48:29;;;;;;;5.25;2.28;;;11.40;1.00;;;;;;5031141;28;20040;-75
2022/09/26 02:51:30;;;;;;;4.63;2.20;;;11.40;1.00;;;;;;5036607;28;20476;-75
2022/09/26 02:54:33;;;;;;;3.75;1.92;;;11.40;1.00;;;;;;5013871;28;20505;-74
2022/09/26 02:57:14;;;;;;;4.05;2.20;;;11.40;1.00;;;;;;5028480;28;20048;-75
2022/09/26 03:00:00;;;;;;;4.78;2.65;;;11.40;1.00;;;;;;5036656;28;20472;-75
2022/09/26 03:02:49;;;;;;;4.05;2.35;;;11.40;1.00;;;;;;5036781;28;20033;-75
2022/09/26 03:05:21;;;;;;;2.90;2.00;;;11.50;1.00;;;;;;5022191;28;20108;-75
2022/09/26 03:08:10;;;;;;;5.38;2.28;;;11.40;1.00;;;;;;5042933;28;20033;-75
2022/09/26 03:10:37;;;;;;;4.43;2.00;;;11.50;1.00;;;;;;5038291;28;20052;-76
2022/09/26 03:13:15;;;;;;;3.63;2.08;;;11.50;1.00;;;;;;5036203;28;20258;-75
2022/09/26 03:15:44;;;;;;;5.43;2.00;;;11.40;1.00;;;;;;5040985;28;20080;-75
2022/09/26 03:18:15;;;;;;;2.25;1.80;;;11.60;1.00;;;;;;5034592;28;20037;-75
2022/09/26 03:20:41;;;;;;;6.32;2.35;;;11.50;1.00;;;;;;5034353;28;20025;-75
2022/09/26 03:23:06;;;;;;;3.38;1.88;;;11.50;1.00;;;;;;5026331;28;20480;-75
2022/09/26 03:25:32;;;;;;;3.95;2.05;;;11.50;1.00;;;;;;5034617;28;20058;-75
2022/09/26 03:28:01;;;;;;;3.83;2.03;;;11.40;1.00;;;;;;5033746;28;20060;-75
2022/09/26 03:30:28;;;;;;;5.07;1.98;;;11.50;1.00;;;;;;5036794;28;20095;-75
2022/09/26 03:32:54;;;;;;;3.33;1.98;;;11.50;1.00;;;;;;5041453;28;20053;-75
2022/09/26 03:35:20;;;;;;;6.25;1.92;;;11.70;1.00;;;;;;5033693;28;20033;-75
2022/09/26 03:37:46;;;;;;;4.32;2.30;;;11.60;1.00;;;;;;5034374;28;20100;-75
2022/09/26 03:40:13;;;;;;;11.02;4.05;;;11.60;1.00;;;;;;5035878;28;20021;-75
2022/09/26 03:42:39;;;;;;;2.47;1.70;;;11.50;1.00;;;;;;5040693;28;20071;-75
2022/09/26 03:45:07;;;;;;;4.93;1.85;;;11.60;1.00;;;;;;5034012;28;20029;-75
2022/09/26 03:47:33;;;;;;;2.58;1.80;;;11.70;1.00;;;;;;5015350;28;20088;-76
2022/09/26 03:49:59;;;;;;;3.65;1.67;;;11.80;1.00;;;;;;5018963;28;20064;-75
2022/09/26 03:52:25;;;;;;;2.28;1.48;;;11.50;1.00;;;;;;5024292;28;20049;-75
2022/09/26 03:54:52;;;;;;;2.60;1.65;;;11.70;1.00;;;;;;5034339;28;21238;-75
2022/09/26 03:57:18;;;;;;;2.83;1.55;;;11.60;1.00;;;;;;5034627;28;20017;-75
2022/09/26 03:59:44;;;;;;;4.30;1.77;;;11.70;1.00;;;;;;5042533;28;20079;-75
2022/09/26 04:02:11;;;;;;;2.40;1.60;;;11.80;1.00;;;;;;5034422;28;20025;-75
2022/09/26 04:04:37;;;;;;;2.67;1.92;;;11.80;1.00;;;;;;5019243;28;20121;-75
2022/09/26 04:07:02;;;;;;;4.80;1.85;;;11.80;1.00;;;;;;5035276;28;20431;-76
2022/09/26 04:09:28;;;;;;;2.60;1.40;;;11.80;1.00;;;;;;5035436;28;20018;-75
2022/09/26 04:11:53;;;;;;;4.43;1.83;;;11.80;1.00;;;;;;5035561;28;20026;-75
2022/09/26 04:14:19;;;;;;;7.68;1.50;;;11.90;1.00;;;;;;5035527;28;20031;-75
2022/09/26 04:16:46;;;;;;;4.60;2.03;;;11.90;1.00;;;;;;5035467;28;20013;-75
2022/09/26 04:19:13;;;;;;;4.40;1.80;;;11.90;1.00;;;;;;5034460;28;20468;-74
2022/09/26 04:21:40;;;;;;;6.70;2.45;;;11.90;1.00;;;;;;5033834;28;20476;-75
2022/09/26 04:24:11;;;;;;;3.60;1.80;;;11.90;1.00;;;;;;5033085;28;20120;-75
2022/09/26 04:26:40;;;;;;;2.80;1.60;;;11.90;1.00;;;;;;5033954;28;20025;-75
2022/09/26 04:29:05;;;;;;;4.75;2.05;;;11.90;1.00;;;;;;5030226;28;20030;-74
2022/09/26 04:31:34;;;;;;;6.05;1.80;;;11.80;1.00;;;;;;5039488;28;20025;-74
2022/09/26 04:34:00;;;;;;;2.75;1.67;;;11.80;1.00;;;;;;5029422;28;20456;-74
2022/09/26 04:36:25;;;;;;;5.82;1.85;;;11.80;1.00;;;;;;5033044;28;20043;-74
2022/09/26 04:38:51;;;;;;;4.20;2.10;;;11.90;99.90;;;;;;5034717;28;20075;-75
2022/09/26 04:41:19;;;;;;;4.90;2.20;;;11.80;99.90;;;;;;5034203;28;20020;-75
2022/09/26 04:43:45;;;;;;;5.10;2.00;;;11.80;99.90;;;;;;5031092;28;20129;-75
2022/09/26 04:46:14;;;;;;;6.22;2.03;;;11.70;99.90;;;;;;5034700;28;20520;-76
2022/09/26 04:48:40;;;;;;;4.37;2.00;;;11.70;99.90;;;;;;5024981;28;20393;-75
2022/09/26 04:51:08;;;;;;;5.38;2.10;;;11.90;97.40;;;;;;5034728;28;20072;-75
2022/09/26 04:53:34;;;;;;;5.05;1.92;;;11.80;99.90;;;;;;5026634;28;20566;-75
2022/09/26 04:56:00;;;;;;;4.75;1.88;;;11.80;65.60;;;;;;5023999;28;20084;-76
2022/09/26 04:58:27;;;;;;;3.00;2.00;;;11.80;21.10;;;;;;5034390;28;20095;-75
2022/09/26 05:00:52;;;;;;;5.97;2.35;;;11.80;1.00;;;;;;5032080;28;20017;-75
2022/09/26 05:03:18;;;;;;;4.97;1.67;;;11.80;1.00;;;;;;5021498;28;20387;-75
2022/09/26 05:05:46;;;;;;;2.30;1.70;;;11.80;1.00;;;;;;5019434;28;20030;-75
2022/09/26 05:08:13;;;;;;;5.88;2.10;;;11.80;1.00;;;;;;5015352;28;20014;-75
2022/09/26 05:10:40;;;;;;;4.82;2.05;;;11.80;1.00;;;;;;5017940;28;20060;-75
2022/09/26 05:13:06;;;;;;;3.88;1.75;;;11.80;1.00;;;;;;5033139;28;20388;-75
2022/09/26 05:15:37;;;;;;;3.53;2.35;;;11.80;1.00;;;;;;5034801;28;20025;-74
2022/09/26 05:18:03;;;;;;;5.38;2.60;;;11.80;1.00;;;;;;5021758;28;20037;-75
2022/09/26 05:20:30;;;;;;;4.45;2.25;;;12.00;1.00;;;;;;5034413;28;20052;-75
2022/09/26 05:22:57;;;;;;;6.53;2.38;;;11.80;1.00;;;;;;5034604;28;20159;-76
2022/09/26 05:28:08;;;;;;;7.65;3.75;;;11.80;1.00;;;;;;5034683;28;20064;-75
2022/09/26 05:30:34;;;;;;;5.47;3.13;;;11.80;1.00;;;;;;5034188;28;20056;-75
2022/09/26 05:33:00;;;;;;;5.57;2.30;;;11.80;29.40;;;;;;5033893;28;20050;-76
2022/09/26 05:35:26;;;;;;;5.80;2.58;;;11.70;1.00;;;;;;5034150;28;20060;-76
2022/09/26 05:38:02;;;;;;;3.30;2.80;;;11.70;1.00;;;;;;5034489;28;20018;-75
2022/09/26 05:43:14;;;;;;;5.57;2.60;;;11.70;1.00;;;;;;5027929;28;20055;-75
2022/09/26 05:45:40;;;;;;;8.13;2.42;;;11.60;1.00;;;;;;5033641;28;20033;-76
2022/09/26 05:48:06;;;;;;;4.82;2.22;;;11.60;1.00;;;;;;5033668;28;20496;-76
2022/09/26 05:50:32;;;;;;;6.50;2.58;;;11.80;1.00;;;;;;5033781;28;20057;-75
2022/09/26 05:52:59;;;;;;;6.35;2.72;;;11.60;1.00;;;;;;5033911;28;20014;-75
2022/09/26 05:55:25;;;;;;;4.22;2.72;;;11.60;1.00;;;;;;5033927;28;20021;-76
2022/09/26 05:57:52;;;;;;;4.07;2.50;;;11.60;1.00;;;;;;5034059;28;20021;-75
2022/09/26 06:00:17;;;;;;;4.85;2.17;;;11.60;1.00;;;;;;5033708;28;20056;-75
2022/09/26 06:02:43;;;;;;;6.00;2.10;;;11.70;1.00;;;;;;5033827;28;20026;-76
2022/09/26 06:05:09;;;;;;;3.13;2.13;;;11.70;1.00;;;;;;5033709;28;20021;-75
2022/09/26 06:07:34;;;;;;;2.85;2.03;;;11.70;1.00;;;;;;5033867;28;20029;-75
2022/09/26 06:10:00;;;;;;;5.93;2.72;;;11.70;1.00;;;;;;5036502;28;20487;-75
2022/09/26 06:12:26;;;;;;;6.10;2.30;;;11.70;1.00;;;;;;5033571;28;20080;-75
2022/09/26 06:14:52;;;;;;;3.67;2.30;;;11.70;1.00;;;;;;5033409;28;20029;-75
2022/09/26 06:17:18;;;;;;;4.18;2.35;;;11.80;1.00;;;;;;5034462;28;20029;-75
2022/09/26 06:19:44;;;;;;;5.22;2.72;;;11.80;99.90;;;;;;5026973;28;20026;-75
2022/09/26 06:22:10;;;;;;;7.57;2.80;;;11.80;99.90;;;;;;5013469;28;20444;-75
2022/09/26 06:24:35;;;;;;;9.07;4.80;;;11.90;99.90;;;;;;5013840;28;20026;-75
2022/09/26 06:27:01;;;;;;;5.30;3.10;;;11.90;99.90;;;;;;5029109;28;20091;-76
2022/09/26 06:29:26;;;;;;;6.22;2.60;;;11.90;99.90;;;;;;5033608;28;20060;-75
2022/09/26 06:31:52;;;;;;;5.43;2.28;;;11.90;99.90;;;;;;5033614;28;20056;-76
2022/09/26 06:34:18;;;;;;;7.43;2.67;;;12.00;99.90;;;;;;5032263;28;20157;-75
2022/09/26 06:36:45;;;;;;;3.90;2.50;;;12.00;99.90;;;;;;5033024;28;20053;-75
2022/09/26 06:39:11;;;;;;;4.13;2.30;;;12.00;99.90;;;;;;5033442;28;20100;-75
2022/09/26 06:41:37;;;;;;;5.95;2.25;;;11.90;99.90;;;;;;5032893;28;20109;-75
2022/09/26 06:44:03;;;;;;;6.25;2.83;;;12.00;99.90;;;;;;5033005;28;20034;-75
2022/09/26 06:46:30;;;;;;;5.10;2.60;;;12.00;99.90;;;;;;5033386;28;20030;-75
2022/09/26 06:48:56;;;;;;;6.35;2.30;;;12.00;99.90;;;;;;5033595;28;20013;-75
2022/09/26 06:51:22;;;;;;;4.40;2.13;;;12.20;99.90;;;;;;5033384;28;20018;-74
2022/09/26 06:53:48;;;;;;;7.78;2.70;;;12.20;99.90;;;;;;5033268;28;20025;-75
2022/09/26 06:56:13;;;;;;;6.25;2.53;;;12.30;99.90;;;;;;5033138;28;20408;-75
2022/09/26 06:58:39;;;;;;;3.83;2.60;;;12.20;99.90;;;;;;5033190;28;20478;-75
2022/09/26 07:01:05;;;;;;;6.88;2.60;;;12.20;99.90;;;;;;5033278;28;20018;-76
2022/09/26 07:03:31;;;;;;;6.15;2.22;;;12.20;99.90;;;;;;5033246;28;20032;-75
2022/09/26 07:05:57;;;;;;;4.40;3.05;;;12.20;99.90;;;;;;5033101;28;20407;-75
2022/09/26 07:08:24;;;;;;;4.47;2.22;;;12.30;99.90;;;;;;5033216;28;20018;-75
2022/09/26 07:10:49;;;;;;;5.43;2.30;;;12.20;99.90;;;;;;5033214;28;20523;-75
2022/09/26 07:13:15;;;;;;;4.15;1.70;;;12.10;99.90;;;;;;5033206;28;20101;-76
2022/09/26 07:15:45;;;;;;;5.15;2.50;;;12.20;99.90;;;;;;5032599;28;20017;-75
2022/09/26 07:18:10;;;;;;;4.55;2.30;;;12.20;99.90;;;;;;5032830;28;20024;-75
2022/09/26 07:20:46;;;;;;;3.70;2.42;;;12.20;99.90;;;;;;5033242;28;20029;-75
2022/09/26 07:23:14;;;;;;;4.82;2.35;;;12.30;99.90;;;;;;5033172;28;20132;-75
2022/09/26 07:25:43;;;;;;;5.15;2.65;;;12.40;99.90;;;;;;5033489;28;20056;-75
2022/09/26 07:28:09;;;;;;;12.82;3.20;;;12.40;99.90;;;;;;5036531;28;20109;-75
2022/09/26 07:30:34;;;;;;;5.20;2.40;;;12.50;99.90;;;;;;5036560;28;20097;-76
2022/09/26 07:33:02;;;;;;;5.07;2.88;;;12.50;99.90;;;;;;5036338;28;20045;-75
2022/09/26 07:35:33;;;;;;;3.03;2.40;;;12.60;99.90;;;;;;5036680;28;20498;-75
2022/09/26 07:37:59;;;;;;;4.75;2.22;;;12.70;99.90;;;;;;5036544;28;20049;-75
2022/09/26 07:40:25;;;;;;;9.50;2.38;;;12.70;99.90;;;;;;5036535;28;20053;-75
2022/09/26 07:42:51;;;;;;;6.18;2.65;;;12.80;99.90;;;;;;5036299;28;20025;-75
2022/09/26 07:50:09;;;;;;;6.00;2.65;;;12.90;99.90;;;;;;5016654;28;20041;-76
2022/09/26 07:50:56;;;;;;;9.40;4.57;;;13.20;99.90;;;;;;5036634;28;20028;-76
2022/09/26 07:53:23;;;;;;;4.13;2.60;;;13.00;99.90;;;;;;5036523;28;20021;-76
2022/09/26 07:56:09;;;;;;;5.22;2.50;;;13.10;99.90;;;;;;5036540;28;20021;-76
2022/09/26 07:58:40;;;;;;;4.38;2.03;;;13.10;99.90;;;;;;5036492;28;20029;-75
2022/09/26 08:01:10;;;;;;;4.43;2.45;;;13.10;99.90;;;;;;5036349;28;20369;-75
2022/09/26 08:03:37;;;;;;;3.45;2.47;;;13.20;99.90;;;;;;5036276;28;20044;-75
2022/09/26 08:06:03;;;;;;;4.45;2.42;;;13.10;99.90;;;;;;5036177;28;20022;-75
2022/09/26 08:08:29;;;;;;;4.05;2.40;;;13.20;99.90;;;;;;5035817;28;20028;-75
2022/09/26 08:10:56;;;;;;;11.15;2.55;;;13.40;99.90;;;;;;5017168;28;20022;-75
2022/09/26 08:13:23;;;;;;;6.28;2.65;;;13.60;99.90;;;;;;5025139;28;20021;-76
2022/09/26 08:15:49;;;;;;;4.45;2.63;;;13.50;99.90;;;;;;5032022;28;20018;-75
2022/09/26 08:18:15;;;;;;;4.05;2.38;;;13.40;99.90;;;;;;5035682;28;20068;-75
2022/09/26 08:20:43;;;;;;;7.85;2.47;;;13.40;99.90;;;;;;5035519;28;20030;-76
2022/09/26 08:23:09;;;;;;;4.40;2.22;;;13.30;99.90;;;;;;5035821;28;20022;-75
2022/09/26 08:25:35;;;;;;;5.05;2.70;;;13.30;99.90;;;;;;5035971;28;20548;-76
2022/09/26 08:28:00;;;;;;;6.03;2.40;;;13.10;99.90;;;;;;5035679;28;20058;-76
2022/09/26 08:30:30;;;;;;;7.22;2.50;;;12.80;99.90;;;;;;5035628;28;20045;-76
2022/09/26 08:33:00;;;;;;;4.17;2.20;;;12.80;1.00;;;;;;5035370;28;20064;-76
2022/09/26 08:35:28;;;;;;;5.30;2.45;;;12.60;1.00;;;;;;5035600;28;20032;-76
2022/09/26 08:37:54;;;;;;;8.15;2.53;;;12.60;1.00;;;;;;5035286;28;20022;-76
2022/09/26 08:40:31;;;;;;;4.00;2.28;;;12.60;1.00;;;;;;5035772;28;20041;-76
2022/09/26 08:43:28;;;;;;;4.47;2.80;;;12.60;1.00;;;;;;5035426;28;20456;-76
2022/09/26 08:48:42;;;;;;;7.50;3.58;;;12.70;1.00;;;;;;5015710;28;20080;-75
2022/09/26 08:51:23;;;;;;;3.92;3.00;;;12.60;1.00;;;;;;5022951;28;20108;-76
2022/09/26 08:53:56;;;;;;;5.70;3.28;;;12.60;38.60;;;;;;5034169;28;20021;-76
2022/09/26 08:56:32;;;;;;;3.88;3.42;;;12.60;37.90;;;;;;5035026;28;20025;-76
2022/09/26 08:59:02;;;;;;;6.72;3.30;;;12.80;48.80;;;;;;5035036;28;20029;-76
2022/09/26 09:01:29;;;;;;;4.25;3.03;;;13.10;22.10;;;;;;5034927;28;20048;-76
2022/09/26 09:04:05;;;;;;;7.13;3.60;;;13.30;1.00;;;;;;5034727;28;20021;-75
2022/09/26 09:06:32;;;;;;;7.38;3.45;;;13.70;1.00;;;;;;5034983;28;20031;-76
2022/09/26 09:08:58;;;;;;;8.60;3.45;;;14.10;99.90;;;;;;5034768;28;20022;-75
2022/09/26 09:12:12;;;;;;;5.93;3.40;;;14.00;32.90;;;;;;5034739;28;20021;-75
2022/09/26 09:14:46;;;;;;;5.15;3.60;;;13.50;1.00;;;;;;5029658;28;20120;-76
2022/09/26 09:17:25;;;;;;;6.80;3.42;;;13.30;1.00;;;;;;5034792;28;20026;-76
2022/09/26 09:20:12;;;;;;;6.95;3.50;;;13.10;99.50;;;;;;5034548;28;20391;-76
2022/09/26 09:22:43;;;;;;;7.78;3.15;;;13.10;99.90;;;;;;5034626;28;20392;-76
2022/09/26 09:25:22;;;;;;;5.07;3.08;;;13.00;99.90;;;;;;5034562;28;20039;-76
2022/09/26 09:28:14;;;;;;;6.10;4.03;;;12.90;99.90;;;;;;5034502;28;20033;-75
2022/09/26 09:30:49;;;;;;;5.63;2.67;;;12.80;99.90;;;;;;5034621;28;20467;-76
2022/09/26 09:33:46;;;;;;;5.32;3.50;;;12.60;99.90;;;;;;5034150;28;20507;-75
2022/09/26 09:36:16;;;;;;;5.47;3.83;;;12.60;99.90;;;;;;5014625;28;20347;-75
2022/09/26 09:38:45;;;;;;;9.82;5.60;;;12.60;99.90;;;;;;5029375;28;20032;-76
2022/09/26 09:41:12;;;;;;;11.87;4.93;;;12.70;99.90;;;;;;5034120;28;20576;-76
2022/09/26 09:43:48;;;;;;;8.38;3.55;;;12.80;99.90;;;;;;5048597;28;20317;-75
2022/09/26 09:46:28;;;;;;;5.85;4.05;;;12.70;99.90;;;;;;5050975;28;20140;-75
2022/09/26 09:49:19;;;;;;;5.05;3.25;;;12.90;99.90;;;;;;5022510;28;20014;-75
2022/09/26 09:52:35;;;;;;;4.35;3.28;;;12.70;99.90;;;;;;5010973;28;20088;-75
2022/09/26 09:55:17;;;;;;;3.05;2.75;;;12.50;99.90;;;;;;5011678;28;20037;-75
2022/09/26 09:58:10;;;;;;;6.90;3.10;;;12.50;99.90;;;;;;5012066;28;20542;-76
2022/09/26 10:00:41;;;;;;;4.18;3.78;;;12.40;99.90;;;;;;5021383;28;20037;-76
2022/09/26 10:03:38;;;;;;;6.05;4.10;;;12.60;99.90;;;;;;5028446;28;20115;-76
2022/09/26 10:06:04;;;;;;;6.10;4.10;;;12.60;99.90;;;;;;5034081;28;20029;-75
2022/09/26 10:08:31;;;;;;;5.25;4.50;;;12.70;99.90;;;;;;5033281;28;20025;-75
2022/09/26 10:11:11;;;;;;;7.38;4.32;;;12.70;99.90;;;;;;5033441;28;20096;-75
2022/09/26 10:13:41;;;;;;;;;;;12.90;99.90;;;;;;5034398;28;20025;-75
2022/09/26 10:16:10;;;;;;;9.40;5.47;;;12.60;99.90;;;;;;5033929;28;19909;-76
2022/09/26 10:19:06;;;;;;;12.65;4.85;;;12.60;99.90;;;;;;5033683;28;20021;-76
2022/09/26 10:21:38;;;;;;;8.52;4.60;;;12.70;99.90;;;;;;5033627;28;20075;-75
2022/09/26 10:24:06;;;;;;;5.43;4.15;;;12.70;99.90;;;;;;5025589;28;20026;-76
2022/09/26 10:26:33;;;;;;;4.63;3.72;;;12.80;99.90;;;;;;5027067;28;20021;-76
2022/09/26 10:29:33;;;;;;;5.85;4.25;;;13.10;99.90;;;;;;5033171;28;20109;-76
2022/09/26 10:31:59;;;;;;;3.95;3.60;;;13.30;99.90;;;;;;5033513;28;20038;-76
2022/09/26 10:34:47;;;;;;;6.65;4.10;;;13.70;99.90;;;;;;5032967;28;20140;-76
2022/09/26 10:37:27;;;;;;;4.75;3.35;;;13.90;99.90;;;;;;5011861;28;20116;-76
2022/09/26 10:42:45;;;;;;;4.07;3.10;;;13.50;99.90;;;;;;5033614;28;20483;-76
2022/09/26 10:45:26;;;;;;;4.82;3.50;;;13.50;99.90;;;;;;5033362;28;20022;-76
2022/09/26 10:47:55;;;;;;;6.07;3.20;;;13.70;99.90;;;;;;5025276;28;20022;-76
2022/09/26 10:50:26;;;;;;;3.55;3.20;;;13.90;99.90;;;;;;5032639;28;20075;-76
2022/09/26 10:53:03;;;;;;;4.70;3.67;;;14.20;99.90;;;;;;5033439;28;20017;-76
2022/09/26 10:55:38;;;;;;;4.82;3.90;;;14.30;99.90;;;;;;5034380;28;20017;-76
2022/09/26 10:58:12;;;;;;;5.78;4.53;;;14.70;69.50;;;;;;5033471;28;20049;-76
2022/09/26 11:00:50;;;;;;;6.47;3.80;;;15.90;99.90;;;;;;5033283;28;20060;-76
2022/09/26 11:03:19;;;;;;;3.88;3.42;;;16.10;99.90;;;;;;5037399;28;20029;-76
2022/09/26 11:05:56;;;;;;;5.22;3.90;;;15.50;99.90;;;;;;5037187;28;20017;-76
2022/09/26 11:08:31;;;;;;;5.75;4.10;;;15.30;99.90;;;;;;5037167;28;20026;-76
2022/09/26 11:11:03;;;;;;;8.05;5.38;;;15.00;99.90;;;;;;5037129;28;20033;-76
2022/09/26 11:14:02;;;;;;;7.95;4.63;;;14.80;99.90;;;;;;5036890;28;20025;-77
2022/09/26 11:16:49;;;;;;;7.25;4.72;;;15.00;99.90;;;;;;5027306;28;20073;-77
2022/09/26 11:19:41;;;;;;;4.57;3.97;;;16.30;18.30;;;;;;5034385;28;20125;-76
2022/09/26 11:22:18;;;;;;;10.00;5.75;;;17.00;99.90;;;;;;5037033;28;20118;-77
2022/09/26 11:25:00;;;;;;;12.35;6.82;;;17.20;99.90;;;;;;5036767;28;20112;-77
2022/09/26 11:27:45;;;;;;;9.07;4.85;;;16.80;99.90;;;;;;5036834;28;20017;-77
2022/09/26 11:30:20;;;;;;;8.40;5.20;;;16.40;99.90;;;;;;5019815;28;20029;-77
2022/09/26 11:32:54;;;;;;;6.90;4.63;;;16.20;99.90;;;;;;5037838;28;20055;-77
2022/09/26 11:35:32;;;;;;;5.93;4.40;;;16.30;99.90;;;;;;5036943;28;20384;-77
2022/09/26 11:38:38;;;;;;;3.80;3.50;;;16.20;99.90;;;;;;5036683;28;20127;-77
2022/09/26 11:41:38;;;;;;;3.92;3.30;;;16.20;99.90;;;;;;5036150;28;20105;-77
2022/09/26 11:44:25;;;;;;;5.03;4.10;;;16.40;99.90;;;;;;5036574;28;20468;-77
2022/09/26 11:47:33;;;;;;;5.47;3.47;;;16.70;99.90;;;;;;5016648;28;20022;-77
2022/09/26 11:50:06;;;;;;;4.57;2.97;;;16.90;99.90;;;;;;5030140;28;20025;-77
2022/09/26 11:53:04;;;;;;;3.97;3.38;;;17.50;99.90;;;;;;5024264;28;20017;-77
2022/09/26 11:55:38;;;;;;;4.15;2.88;;;17.70;99.90;;;;;;5030865;28;20052;-77
2022/09/26 11:58:21;;;;;;;3.55;3.15;;;17.50;99.90;;;;;;5036275;28;20037;-77
2022/09/26 12:01:18;;;;;;;5.57;3.08;;;17.30;99.90;;;;;;5036271;28;20025;-77
2022/09/26 12:04:04;;;;;;;7.03;3.25;;;17.80;99.90;;;;;;5016764;28;20034;-77
2022/09/26 12:06:35;;;;;;;4.00;3.30;;;18.40;99.90;;;;;;5028076;28;20017;-77
2022/09/26 12:09:25;;;;;;;5.85;4.03;;;18.50;99.90;;;;;;5038185;28;20026;-77
2022/09/26 12:12:13;;;;;;;6.05;3.30;;;19.10;99.90;;;;;;5024224;28;20025;-77
2022/09/26 12:14:57;;;;;;;8.93;4.68;;;18.20;99.90;;;;;;5029020;28;20549;-77
2022/09/26 12:17:58;;;;;;;11.48;4.80;;;17.30;99.90;;;;;;5035816;28;20037;-77
2022/09/26 12:20:32;;;;;;;3.83;2.70;;;16.80;99.90;;;;;;5035868;28;20028;-77
2022/09/26 12:23:10;;;;;;;4.50;1.92;;;17.20;99.90;;;;;;5035841;28;20056;-77
2022/09/26 12:25:55;;;;;;;9.65;2.30;;;17.00;99.90;;;;;;5016004;28;20030;-78
2022/09/26 12:28:42;;;;;;;4.63;1.88;;;17.30;99.90;;;;;;5021929;28;20034;-77
2022/09/26 12:31:14;;;;;;;3.50;1.10;;;17.30;99.90;;;;;;5016282;28;20034;-77
2022/09/26 12:34:06;;;;;;;7.13;1.20;;;17.40;99.90;;;;;;5015341;28;20054;-77
2022/09/26 12:37:11;;;;;;;4.40;0.90;;;17.70;99.90;;;;;;5025073;28;20025;-77
2022/09/26 12:40:03;;;;;;;7.88;1.63;;;18.40;99.90;;;;;;5031067;28;20033;-78
2022/09/26 12:43:14;;;;;;;3.80;0.80;;;18.70;99.90;;;;;;5034260;28;20025;-77
2022/09/26 12:45:46;;;;;;;6.72;0.85;;;19.10;99.90;;;;;;5030851;28;20064;-78
2022/09/26 12:48:29;;;;;;;5.88;1.20;;;18.80;99.90;;;;;;5034607;28;20017;-77
2022/09/26 12:51:07;;;;;;;3.33;1.10;;;18.80;99.90;;;;;;5028962;28;20024;-77
2022/09/26 12:53:51;;;;;;;8.00;1.17;;;18.60;99.90;;;;;;5017760;28;20021;-77
2022/09/26 12:56:32;;;;;;;5.03;1.15;;;18.60;99.90;;;;;;5018785;28;20472;-77
2022/09/26 12:59:05;;;;;;;6.53;0.95;;;18.70;99.90;;;;;;5015950;28;20022;-77
2022/09/26 13:01:36;;;;;;;6.03;1.20;;;18.60;99.90;;;;;;5027340;28;20018;-77
2022/09/26 13:04:16;;;;;;;6.50;1.45;;;18.80;99.90;;;;;;5015570;28;20477;-77
2022/09/26 13:06:45;;;;;;;9.65;1.88;;;18.50;99.90;;;;;;5015532;28;20104;-77
2022/09/26 13:09:39;;;;;;;8.32;1.63;;;18.50;99.90;;;;;;5015173;28;20014;-77
2022/09/26 13:12:37;;;;;;;7.95;1.65;;;18.30;99.90;;;;;;5015192;28;20432;-76
2022/09/26 13:15:21;;;;;;;5.57;1.13;;;18.20;99.90;;;;;;5020239;28;20032;-76
2022/09/26 13:18:05;;;;;;;8.27;1.45;;;17.90;99.90;;;;;;5034785;28;20499;-76
2022/09/26 13:20:44;;;;;;;9.45;1.75;;;18.00;99.90;;;;;;5034790;28;20445;-77
2022/09/26 13:23:25;;;;;;;9.68;1.73;;;18.20;99.90;;;;;;5018839;28;20030;-77
2022/09/26 13:25:58;;;;;;;10.00;2.13;;;18.70;99.90;;;;;;5016210;28;20156;-77
2022/09/26 13:28:37;;;;;;;10.68;1.70;;;18.70;99.90;;;;;;5015012;28;20026;-77
2022/09/26 13:31:09;;;;;;;9.95;2.13;;;18.60;99.90;;;;;;5025837;28;20025;-77
2022/09/26 13:33:57;;;;;;;9.10;2.35;;;18.40;99.90;;;;;;5034260;28;20054;-77
2022/09/26 13:36:24;;;;;;;6.88;1.70;;;18.10;99.90;;;;;;5026303;28;20021;-76
2022/09/26 13:39:11;;;;;;;11.73;1.70;;;18.20;99.90;;;;;;5034402;28;20020;-76